Time;durP1;ratioP1;P1;durP2;ratioP2;P2;SDS_P1;SDS_P2;PMS_P1;PMS_P2;Temp;Humidity;BMP_temperature;BMP_pressure;BME280_temperature;BME280_humidity;BME280_pressure;Samples;Min_cycle;Max_cycle;Signal;HPM_P1;HPM_P2
2022/10/18 00:01:35;;;;;;;0.10;0.10;;;;;;;15.51;73.91;102625.69;5059076;28;20029;-78
2022/10/18 00:04:01;;;;;;;0.00;0.00;;;;;;;15.48;74.02;102628.41;5058551;28;20025;-79
2022/10/18 00:06:28;;;;;;;0.00;0.00;;;;;;;15.44;74.07;102622.22;5062605;28;20021;-79
2022/10/18 00:08:54;;;;;;;0.00;0.00;;;;;;;15.41;73.94;102626.72;5059758;28;20055;-78
2022/10/18 00:11:20;;;;;;;0.10;0.10;;;;;;;15.38;74.07;102632.97;5059928;28;20480;-79
2022/10/18 00:13:46;;;;;;;0.10;0.10;;;;;;;15.35;73.92;102630.34;5058446;28;20043;-79
2022/10/18 00:16:15;;;;;;;0.10;0.10;;;;;;;15.32;73.93;102625.03;5059445;28;20040;-79
2022/10/18 00:18:42;;;;;;;0.10;0.10;;;;;;;15.29;73.81;102630.41;5061751;28;20644;-79
2022/10/18 00:21:13;;;;;;;0.10;0.10;;;;;;;15.27;73.92;102632.22;5063952;28;20025;-79
2022/10/18 00:23:39;;;;;;;0.00;0.00;;;;;;;15.23;73.77;102625.13;5061479;28;20037;-79
2022/10/18 00:26:09;;;;;;;0.10;0.10;;;;;;;15.22;73.77;102634.94;5062379;28;20048;-79
2022/10/18 00:28:37;;;;;;;0.10;0.10;;;;;;;15.18;73.81;102628.75;5060125;28;20029;-78
2022/10/18 00:31:15;;;;;;;0.10;0.10;;;;;;;15.21;73.93;102633.16;5058782;28;20025;-79
2022/10/18 00:33:44;;;;;;;0.10;0.10;;;;;;;15.16;74.07;102630.53;5059475;28;20496;-79
2022/10/18 00:36:12;;;;;;;0.30;0.30;;;;;;;15.15;73.94;102636.78;5061070;28;20041;-79
2022/10/18 00:38:39;;;;;;;0.10;0.10;;;;;;;15.15;73.94;102638.56;5058870;28;20025;-78
2022/10/18 00:41:07;;;;;;;0.10;0.10;;;;;;;15.15;74.06;102639.47;5057795;28;20081;-80
2022/10/18 00:46:31;;;;;;;0.10;0.10;;;;;;;15.15;74.03;102638.56;5094188;27;20383;-80
2022/10/18 00:49:01;;;;;;;0.10;0.10;;;;;;;15.13;74.16;102638.59;5079696;28;20295;-79
2022/10/18 00:51:32;;;;;;;0.10;0.10;;;;;;;15.10;74.00;102640.41;5076638;28;20104;-79
2022/10/18 00:53:59;;;;;;;0.10;0.10;;;;;;;15.06;74.11;102644.00;5069979;28;20025;-80
2022/10/18 00:56:25;;;;;;;0.10;0.10;;;;;;;15.03;74.01;102644.94;5076972;28;20051;-80
2022/10/18 00:58:52;;;;;;;0.10;0.10;;;;;;;15.02;74.03;102648.50;5069121;28;20032;-80
2022/10/18 01:01:18;;;;;;;0.10;0.10;;;;;;;15.01;74.10;102649.38;5071525;28;20056;-79
2022/10/18 01:03:45;;;;;;;0.10;0.10;;;;;;;14.99;74.18;102652.06;5067888;28;20107;-79
2022/10/18 01:06:11;;;;;;;0.10;0.10;;;;;;;14.99;74.11;102648.50;5068345;28;20066;-79
2022/10/18 01:11:29;;;;;;;0.10;0.10;;;;;;;15.01;74.16;102657.41;5105379;27;20138;-76
2022/10/18 01:14:11;;;;;;;0.10;0.10;;;;;;;15.03;74.10;102666.28;5088017;28;20028;-77
2022/10/18 01:16:51;;;;;;;0.10;0.10;;;;;;;15.04;74.41;102662.69;5085043;28;20031;-77
2022/10/18 01:19:49;;;;;;;0.10;0.10;;;;;;;15.11;74.16;102661.72;5083721;28;20120;-78
2022/10/18 01:22:38;;;;;;;0.10;0.10;;;;;;;15.15;74.53;102655.50;5077226;28;20025;-77
2022/10/18 01:33:26;;;;;;;0.05;0.05;;;;;;;15.24;74.55;102653.59;5109259;27;20136;-77
2022/10/18 01:36:00;;;;;;;0.10;0.10;;;;;;;15.25;74.62;102660.72;5088432;28;20506;-78
2022/10/18 01:38:30;;;;;;;0.10;0.10;;;;;;;15.23;74.53;102657.16;5087271;28;20035;-78
2022/10/18 01:40:56;;;;;;;0.05;0.05;;;;;;;15.22;74.53;102661.63;5078616;28;20028;-77
2022/10/18 01:43:25;;;;;;;0.10;0.10;;;;;;;15.22;74.45;102660.75;5080881;28;20494;-78
2022/10/18 01:45:57;;;;;;;0.00;0.00;;;;;;;15.18;74.57;102658.09;5080380;28;20041;-78
2022/10/18 01:48:24;;;;;;;0.10;0.10;;;;;;;15.17;74.50;102658.13;5082885;28;20449;-78
2022/10/18 01:50:52;;;;;;;0.10;0.10;;;;;;;15.17;74.73;102667.00;5078109;28;21364;-77
2022/10/18 01:53:29;;;;;;;0.10;0.10;;;;;;;15.19;74.57;102667.03;5083187;28;20389;-77
2022/10/18 01:56:21;;;;;;;0.10;0.10;;;;;;;15.18;74.66;102665.25;5082283;28;20025;-78
2022/10/18 01:59:06;;;;;;;0.20;0.20;;;;;;;15.19;74.56;102672.38;5072479;28;20094;-77
2022/10/18 02:01:51;;;;;;;0.20;0.20;;;;;;;15.16;74.41;102667.03;5081216;28;20032;-78
2022/10/18 02:04:30;;;;;;;0.10;0.10;;;;;;;15.13;74.44;102667.09;5080362;28;20593;-78
2022/10/18 02:07:04;;;;;;;0.00;0.00;;;;;;;15.07;74.61;102662.69;5077791;28;20077;-77
2022/10/18 02:09:39;;;;;;;0.10;0.10;;;;;;;15.05;74.53;102669.81;5069498;28;20146;-78
2022/10/18 02:12:09;;;;;;;0.00;0.00;;;;;;;14.91;74.86;102664.59;5077775;28;20024;-78
2022/10/18 02:14:37;;;;;;;0.10;0.10;;;;;;;14.85;74.80;102662.88;5088016;28;20165;-79
2022/10/18 02:17:06;;;;;;;0.10;0.10;;;;;;;14.89;74.49;102666.38;5087821;28;20032;-79
2022/10/18 02:19:37;;;;;;;0.10;0.10;;;;;;;14.85;74.35;102662.88;5090107;28;20481;-79
2022/10/18 02:22:06;;;;;;;0.10;0.10;;;;;;;14.79;74.35;102662.94;5089612;28;20385;-79
2022/10/18 02:24:37;;;;;;;0.10;0.10;;;;;;;14.83;73.75;102669.13;5089325;28;20036;-79
2022/10/18 02:27:04;;;;;;;0.10;0.10;;;;;;;14.77;73.57;102671.84;5088746;28;20020;-79
2022/10/18 02:29:34;;;;;;;0.10;0.10;;;;;;;14.71;73.58;102681.66;5089366;28;20547;-78
2022/10/18 02:32:27;;;;;;;0.10;0.10;;;;;;;14.67;73.77;102684.38;5086973;28;20028;-77
2022/10/18 02:35:05;;;;;;;0.10;0.10;;;;;;;14.59;73.98;102683.50;5084109;28;20032;-78
2022/10/18 02:37:36;;;;;;;0.10;0.10;;;;;;;14.56;73.93;102687.09;5076345;28;20100;-77
2022/10/18 02:40:04;;;;;;;0.10;0.10;;;;;;;14.51;73.89;102684.44;5090369;28;20023;-78
2022/10/18 02:42:36;;;;;;;0.10;0.10;;;;;;;14.50;73.83;102681.78;5087380;28;20031;-78
2022/10/18 02:45:04;;;;;;;0.10;0.10;;;;;;;14.45;74.05;102683.59;5074410;28;20031;-77
2022/10/18 02:47:31;;;;;;;0.10;0.10;;;;;;;14.39;73.95;102687.19;5071533;28;20028;-79
2022/10/18 02:49:57;;;;;;;0.20;0.20;;;;;;;14.33;73.85;102684.56;5073125;28;20150;-78
2022/10/18 02:52:25;;;;;;;0.10;0.10;;;;;;;14.30;73.75;102687.25;5068242;28;20414;-77
2022/10/18 02:54:51;;;;;;;0.10;0.10;;;;;;;14.25;73.77;102687.28;5055423;28;20402;-78
2022/10/18 02:57:17;;;;;;;0.10;0.10;;;;;;;14.22;74.12;102688.19;5079164;28;20035;-78
2022/10/18 02:59:44;;;;;;;0.10;0.10;;;;;;;14.18;74.01;102685.53;5072634;28;20159;-78
2022/10/18 03:02:10;;;;;;;0.10;0.10;;;;;;;14.15;73.97;102690.91;5070015;28;20405;-78
2022/10/18 03:04:36;;;;;;;0.35;0.35;;;;;;;14.11;73.53;102690.03;5069642;28;20046;-79
2022/10/18 03:07:02;;;;;;;1.00;0.57;;;;;;;14.09;73.82;102681.16;5074134;28;20504;-79
2022/10/18 03:09:28;;;;;;;0.10;0.10;;;;;;;14.06;73.88;102676.72;5073209;28;20024;-78
2022/10/18 03:11:54;;;;;;;0.10;0.10;;;;;;;14.02;73.89;102684.75;5073631;28;20056;-79
2022/10/18 03:14:20;;;;;;;0.10;0.10;;;;;;;13.99;73.94;102680.28;5073738;28;20052;-78
2022/10/18 03:16:46;;;;;;;0.20;0.20;;;;;;;13.96;74.01;102679.47;5071845;28;20035;-78
2022/10/18 03:19:12;;;;;;;0.10;0.10;;;;;;;13.93;74.22;102676.78;5072189;28;20056;-78
2022/10/18 03:21:39;;;;;;;0.10;0.10;;;;;;;13.93;74.38;102675.00;5075045;28;20028;-78
2022/10/18 03:24:05;;;;;;;0.10;0.10;;;;;;;13.94;74.54;102681.22;5076907;28;20073;-79
2022/10/18 03:26:31;;;;;;;0.10;0.10;;;;;;;13.93;74.32;102682.13;5074388;28;20024;-79
2022/10/18 03:28:57;;;;;;;0.10;0.10;;;;;;;13.90;74.49;102685.69;5070315;28;20540;-78
2022/10/18 03:31:23;;;;;;;0.10;0.10;;;;;;;13.86;74.24;102684.81;5072471;28;20555;-78
2022/10/18 03:33:49;;;;;;;0.15;0.15;;;;;;;13.84;73.95;102696.38;5067548;28;20036;-79
2022/10/18 03:36:16;;;;;;;0.10;0.10;;;;;;;13.82;74.07;102693.72;5073986;28;20112;-79
2022/10/18 03:38:42;;;;;;;0.00;0.00;;;;;;;13.81;73.47;102697.28;5070140;28;20027;-77
2022/10/18 03:41:09;;;;;;;0.10;0.10;;;;;;;13.79;73.90;102692.84;5079066;28;20042;-78
2022/10/18 03:43:36;;;;;;;0.30;0.30;;;;;;;13.78;73.80;102691.94;5075634;28;20035;-79
2022/10/18 03:46:02;;;;;;;0.10;0.10;;;;;;;13.75;73.92;102690.16;5071339;28;20070;-80
2022/10/18 03:48:28;;;;;;;0.10;0.10;;;;;;;13.74;73.76;102693.75;5074292;28;20040;-79
2022/10/18 03:50:54;;;;;;;0.70;0.70;;;;;;;13.75;73.74;102690.16;5073945;28;20032;-78
2022/10/18 03:53:20;;;;;;;0.10;0.10;;;;;;;13.77;73.33;102689.28;5074187;28;20024;-78
2022/10/18 03:55:51;;;;;;;0.00;0.00;;;;;;;13.80;73.77;102684.84;5073448;28;20025;-79
2022/10/18 03:58:17;;;;;;;0.10;0.10;;;;;;;13.74;73.52;102683.09;5074979;28;20093;-79
2022/10/18 04:00:43;;;;;;;0.10;0.10;;;;;;;13.69;74.09;102682.19;5068102;28;20029;-78
2022/10/18 04:03:09;;;;;;;0.10;0.10;;;;;;;13.69;73.74;102686.66;5069666;28;20524;-78
2022/10/18 04:05:35;;;;;;;0.10;0.10;;;;;;;13.79;74.04;102687.50;5073184;28;20020;-78
2022/10/18 04:08:02;;;;;;;0.10;0.10;;;;;;;13.82;73.73;102688.38;5072613;28;20519;-77
2022/10/18 04:10:28;;;;;;;0.20;0.20;;;;;;;13.84;73.97;102683.03;5066253;28;20405;-78
2022/10/18 04:12:54;;;;;;;0.10;0.10;;;;;;;13.85;73.85;102680.38;5072434;28;20017;-78
2022/10/18 04:15:20;;;;;;;0.17;0.17;;;;;;;13.85;73.67;102688.34;5071372;28;20036;-78
2022/10/18 04:17:46;;;;;;;0.10;0.10;;;;;;;13.87;73.80;102678.59;5069080;28;20117;-79
2022/10/18 04:20:13;;;;;;;0.10;0.10;;;;;;;13.88;74.00;102682.13;5069045;28;20055;-78
2022/10/18 04:22:39;;;;;;;0.10;0.10;;;;;;;13.89;73.79;102684.81;5063502;28;20475;-78
2022/10/18 04:25:05;;;;;;;0.10;0.10;;;;;;;13.88;73.83;102680.38;5066664;28;20506;-79
2022/10/18 04:27:31;;;;;;;0.65;0.63;;;;;;;13.86;74.00;102683.94;5053620;28;20036;-78
2022/10/18 04:29:57;;;;;;;0.68;0.68;;;;;;;13.85;73.74;102682.16;5053543;28;20029;-78
2022/10/18 04:32:25;;;;;;;0.15;0.15;;;;;;;13.76;74.04;102677.75;5061068;28;20078;-78
2022/10/18 04:34:51;;;;;;;0.35;0.35;;;;;;;13.71;74.08;102677.75;5052547;28;20471;-79
2022/10/18 04:37:17;;;;;;;0.10;0.10;;;;;;;13.71;74.38;102675.09;5053337;28;20033;-78
2022/10/18 04:39:47;;;;;;;0.10;0.10;;;;;;;13.68;74.27;102684.88;5066089;28;20035;-78
2022/10/18 04:42:13;;;;;;;0.10;0.10;;;;;;;13.68;74.41;102692.88;5053692;28;20024;-79
2022/10/18 04:44:40;;;;;;;0.70;0.70;;;;;;;13.66;74.33;102692.00;5062224;28;20032;-77
2022/10/18 04:47:06;;;;;;;0.10;0.10;;;;;;;13.73;73.64;102699.06;5063081;28;20029;-78
2022/10/18 04:49:32;;;;;;;0.10;0.10;;;;;;;13.73;73.65;102699.06;5052552;28;20032;-79
2022/10/18 04:51:58;;;;;;;0.05;0.05;;;;;;;13.61;74.25;102701.75;5053018;28;20628;-78
2022/10/18 04:54:24;;;;;;;0.10;0.10;;;;;;;13.63;73.94;102694.66;5053732;28;20112;-78
2022/10/18 04:56:50;;;;;;;0.10;0.10;;;;;;;13.64;74.02;102688.44;5053219;28;20386;-78
2022/10/18 04:59:16;;;;;;;0.10;0.10;;;;;;;13.58;74.49;102689.34;5065492;28;20040;-78
2022/10/18 05:01:42;;;;;;;0.20;0.20;;;;;;;13.59;74.42;102689.38;5062535;28;20052;-78
2022/10/18 05:04:09;;;;;;;0.10;0.10;;;;;;;13.55;73.90;102695.56;5070654;28;20040;-78
2022/10/18 05:06:35;;;;;;;0.10;0.10;;;;;;;13.58;73.99;102695.56;5067768;28;20430;-78
2022/10/18 05:09:01;;;;;;;0.10;0.10;;;;;;;13.57;74.32;102698.22;5064888;28;20394;-78
2022/10/18 05:11:27;;;;;;;0.05;0.05;;;;;;;13.55;74.41;102711.53;5060159;28;20017;-79
2022/10/18 05:13:59;;;;;;;0.10;0.10;;;;;;;13.55;74.24;102714.22;5076997;28;20040;-78
2022/10/18 05:16:28;;;;;;;0.10;0.10;;;;;;;13.59;74.60;102718.66;5061513;28;20161;-78
2022/10/18 05:18:54;;;;;;;0.10;0.10;;;;;;;13.58;74.35;102710.66;5058865;28;20031;-78
2022/10/18 05:21:20;;;;;;;0.10;0.10;;;;;;;13.52;74.34;102722.22;5060965;28;20556;-77
2022/10/18 05:23:46;;;;;;;0.08;0.08;;;;;;;13.50;74.29;102723.13;5057719;28;20047;-78
2022/10/18 05:26:12;;;;;;;0.10;0.10;;;;;;;13.48;74.58;102725.75;5054487;28;20028;-77
2022/10/18 05:28:38;;;;;;;0.10;0.10;;;;;;;13.50;74.50;102724.00;5054844;28;20512;-78
2022/10/18 05:31:06;;;;;;;0.10;0.10;;;;;;;13.54;74.25;102728.41;5053468;28;20025;-78
2022/10/18 05:33:34;;;;;;;0.10;0.10;;;;;;;13.50;74.56;102729.31;5056706;28;20060;-78
2022/10/18 05:36:01;;;;;;;0.35;0.35;;;;;;;13.48;74.25;102730.22;5059869;28;20076;-78
2022/10/18 05:38:29;;;;;;;0.28;0.28;;;;;;;13.44;74.39;102732.00;5065993;28;20031;-78
2022/10/18 05:40:56;;;;;;;0.10;0.10;;;;;;;13.44;74.29;102721.34;5064662;28;20094;-78
2022/10/18 05:43:22;;;;;;;0.15;0.15;;;;;;;13.37;74.03;102717.81;5063783;28;20108;-78
2022/10/18 05:45:50;;;;;;;0.10;0.10;;;;;;;13.38;74.02;102724.00;5060298;28;20036;-78
2022/10/18 05:48:16;;;;;;;0.10;0.10;;;;;;;13.32;74.18;102730.22;5063635;28;20025;-78
2022/10/18 05:50:43;;;;;;;0.10;0.10;;;;;;;13.30;74.06;102736.44;5059136;28;20052;-77
2022/10/18 05:53:09;;;;;;;0.10;0.10;;;;;;;13.33;74.38;102739.06;5061035;28;20403;-78
2022/10/18 05:55:36;;;;;;;0.10;0.10;;;;;;;13.36;73.69;102733.75;5057208;28;20044;-80
2022/10/18 05:58:03;;;;;;;0.10;0.10;;;;;;;13.25;74.06;102734.63;5062303;28;20115;-79
2022/10/18 06:00:29;;;;;;;0.10;0.10;;;;;;;13.20;73.97;102736.41;5062977;28;20033;-79
2022/10/18 06:02:55;;;;;;;0.13;0.13;;;;;;;13.17;74.46;102739.09;5059267;28;20121;-78
2022/10/18 06:05:21;;;;;;;0.03;0.03;;;;;;;13.15;73.98;102753.31;5056439;28;20028;-79
2022/10/18 06:07:47;;;;;;;0.10;0.10;;;;;;;13.13;74.61;102755.94;5065444;28;20025;-79
2022/10/18 06:10:14;;;;;;;0.10;0.10;;;;;;;13.11;74.39;102757.72;5054663;28;20028;-78
2022/10/18 06:12:40;;;;;;;0.00;0.00;;;;;;;13.11;74.50;102763.06;5053275;28;20033;-79
2022/10/18 06:15:06;;;;;;;0.17;0.17;;;;;;;13.10;74.19;102763.94;5061034;28;20383;-79
2022/10/18 06:17:32;;;;;;;0.20;0.20;;;;;;;13.06;74.24;102767.47;5055148;28;20025;-79
2022/10/18 06:19:58;;;;;;;0.10;0.10;;;;;;;13.01;73.88;102778.13;5057806;28;20041;-79
2022/10/18 06:22:24;;;;;;;0.10;0.10;;;;;;;12.98;73.86;102770.13;5066922;28;20017;-79
2022/10/18 06:24:50;;;;;;;0.10;0.10;;;;;;;12.91;74.07;102771.91;5058715;28;20108;-78
2022/10/18 06:27:17;;;;;;;0.10;0.10;;;;;;;12.87;74.13;102778.13;5058507;28;20064;-78
2022/10/18 06:29:43;;;;;;;0.10;0.10;;;;;;;12.84;74.08;102788.72;5063591;28;20111;-78
2022/10/18 06:32:09;;;;;;;0.10;0.10;;;;;;;12.82;73.82;102798.47;5060223;28;20067;-78
2022/10/18 06:34:35;;;;;;;0.10;0.10;;;;;;;12.79;74.02;102799.34;5059867;28;20044;-84
2022/10/18 06:37:01;;;;;;;0.00;0.00;;;;;;;12.89;73.42;102794.94;5068996;28;20041;-79
2022/10/18 06:39:27;;;;;;;0.10;0.10;;;;;;;12.84;73.94;102794.06;5068206;28;20041;-79
2022/10/18 06:41:53;;;;;;;0.10;0.10;;;;;;;12.86;74.24;102808.25;5059734;28;20098;-79
2022/10/18 06:44:20;;;;;;;0.10;0.10;;;;;;;12.88;73.94;102803.81;5057791;28;20032;-78
2022/10/18 06:46:47;;;;;;;0.10;0.10;;;;;;;12.93;74.15;102802.06;5061714;28;20040;-78
2022/10/18 06:49:14;;;;;;;0.10;0.10;;;;;;;12.90;73.89;102806.50;5054065;28;20128;-79
2022/10/18 06:51:42;;;;;;;0.10;0.10;;;;;;;12.90;74.13;102801.19;5054147;28;20024;-78
2022/10/18 06:54:08;;;;;;;0.10;0.10;;;;;;;12.91;74.21;102810.91;5059454;28;20070;-78
2022/10/18 06:56:35;;;;;;;0.10;0.10;;;;;;;12.93;74.78;102818.03;5054079;28;20514;-78
2022/10/18 06:59:01;;;;;;;0.10;0.10;;;;;;;12.94;74.59;102817.13;5055984;28;20108;-78
2022/10/18 07:01:33;;;;;;;0.10;0.10;;;;;;;12.97;74.61;102823.34;5067060;28;20013;-79
2022/10/18 07:03:59;;;;;;;0.10;0.10;;;;;;;12.97;74.57;102823.34;5058693;28;20025;-79
2022/10/18 07:06:25;;;;;;;0.22;0.22;;;;;;;13.02;73.78;102822.47;5077171;28;20111;-79
2022/10/18 07:08:52;;;;;;;0.10;0.10;;;;;;;13.13;73.63;102818.94;5075899;28;20032;-79
2022/10/18 07:11:23;;;;;;;0.10;0.10;;;;;;;13.10;73.92;102838.47;5071209;28;20587;-79
2022/10/18 07:13:51;;;;;;;0.10;0.10;;;;;;;13.11;74.44;102833.13;5067440;28;20405;-79
2022/10/18 07:16:18;;;;;;;0.10;0.10;;;;;;;13.15;74.78;102830.47;5054297;28;20028;-79
2022/10/18 07:18:48;;;;;;;0.10;0.10;;;;;;;13.24;74.41;102827.81;5057004;28;20382;-78
2022/10/18 07:21:17;;;;;;;0.10;0.10;;;;;;;13.18;74.42;102836.66;5055110;28;20482;-78
2022/10/18 07:23:45;;;;;;;0.10;0.10;;;;;;;13.21;74.73;102839.34;5064202;28;20035;-79
2022/10/18 07:28:51;;;;;;;0.10;0.10;;;;;;;13.40;74.46;102844.72;5113633;27;20161;-76
2022/10/18 07:31:17;;;;;;;0.10;0.10;;;;;;;13.46;74.22;102839.41;5070571;28;20024;-76
2022/10/18 07:33:43;;;;;;;0.10;0.10;;;;;;;13.51;74.98;102840.28;5077202;28;20055;-76
2022/10/18 07:36:11;;;;;;;0.35;0.35;;;;;;;13.59;74.88;102851.84;5073275;28;20041;-76
2022/10/18 07:38:37;;;;;;;0.10;0.10;;;;;;;13.66;74.86;102862.50;5083208;28;20051;-75
2022/10/18 07:41:05;;;;;;;0.10;0.10;;;;;;;13.75;74.90;102862.47;5083765;28;20036;-76
2022/10/18 07:43:32;;;;;;;1.38;0.93;;;;;;;13.82;74.74;102858.91;5072991;28;20036;-76
2022/10/18 07:46:00;;;;;;;1.02;1.02;;;;;;;13.90;74.67;102861.56;5070988;28;20039;-76
2022/10/18 07:48:27;;;;;;;0.22;0.22;;;;;;;13.95;74.91;102861.56;5071959;28;20103;-76
2022/10/18 07:50:56;;;;;;;0.10;0.10;;;;;;;14.00;75.12;102868.63;5080408;28;20036;-76
2022/10/18 07:53:22;;;;;;;0.00;0.00;;;;;;;14.09;75.23;102873.06;5082863;28;20516;-77
2022/10/18 07:55:48;;;;;;;0.10;0.10;;;;;;;14.17;75.41;102876.59;5087549;28;20033;-77
2022/10/18 07:58:14;;;;;;;0.00;0.00;;;;;;;14.25;75.41;102879.25;5084732;28;20021;-76
2022/10/18 08:00:40;;;;;;;0.10;0.10;;;;;;;14.24;75.98;102882.78;5078085;28;20376;-76
2022/10/18 08:03:06;;;;;;;0.10;0.10;;;;;;;14.28;76.33;102886.34;5084958;28;20024;-76
2022/10/18 08:05:32;;;;;;;0.10;0.10;;;;;;;14.31;76.66;102894.34;5087617;28;20031;-76
2022/10/18 08:07:58;;;;;;;0.28;0.28;;;;;;;14.32;77.16;102894.34;5087244;28;20028;-77
2022/10/18 08:10:24;;;;;;;0.10;0.10;;;;;;;14.43;77.09;102890.75;5088202;28;20025;-76
2022/10/18 08:12:52;;;;;;;0.10;0.10;;;;;;;14.47;77.14;102890.75;5084687;28;20104;-77
2022/10/18 08:15:19;;;;;;;0.10;0.10;;;;;;;14.56;77.24;102890.69;5065665;28;20107;-76
2022/10/18 08:17:45;;;;;;;0.10;0.10;;;;;;;14.65;77.15;102892.47;5079476;28;20467;-76
2022/10/18 08:20:11;;;;;;;0.10;0.10;;;;;;;14.67;77.47;102885.34;5071803;28;20041;-76
2022/10/18 08:22:38;;;;;;;0.38;0.38;;;;;;;14.72;77.75;102883.53;5073382;28;20128;-76
2022/10/18 08:25:04;;;;;;;0.10;0.10;;;;;;;14.89;77.43;102890.56;5080445;28;20448;-77
2022/10/18 08:27:30;;;;;;;0.10;0.10;;;;;;;14.97;77.05;102894.09;5089074;28;20125;-76
2022/10/18 08:29:58;;;;;;;0.10;0.10;;;;;;;15.10;76.88;102894.91;5081212;28;20507;-76
2022/10/18 08:32:24;;;;;;;0.10;0.10;;;;;;;15.19;76.57;102892.19;5087149;28;20020;-76
2022/10/18 08:34:51;;;;;;;0.10;0.10;;;;;;;15.26;76.47;102887.69;5085194;28;20025;-77
2022/10/18 08:37:17;;;;;;;0.10;0.10;;;;;;;15.31;76.37;102888.53;5084145;28;20032;-78
2022/10/18 08:39:43;;;;;;;0.30;0.30;;;;;;;15.37;76.34;102890.28;5065187;28;20040;-77
2022/10/18 08:44:53;;;;;;;0.10;0.10;;;;;;;15.45;76.34;102882.22;5105590;27;20213;-76
2022/10/18 08:47:33;;;;;;;0.10;0.10;;;;;;;15.51;76.22;102896.41;5073505;28;20036;-77
2022/10/18 08:50:06;;;;;;;0.00;0.00;;;;;;;15.60;75.81;102895.47;5068720;28;20039;-77
2022/10/18 08:53:00;;;;;;;0.10;0.10;;;;;;;15.71;75.88;102894.47;5068616;28;20020;-77
2022/10/18 08:58:29;;;;;;;0.10;0.10;;;;;;;16.01;74.74;102906.69;5149189;27;86679;-77
2022/10/18 09:07:07;;;;;;;0.10;0.10;;;;;;;16.32;73.40;102890.31;5059097;28;20215;-77
2022/10/18 09:09:58;;;;;;;0.10;0.10;;;;;;;16.43;72.76;102885.72;5028906;28;20112;-79
2022/10/18 09:12:52;;;;;;;0.10;0.10;;;;;;;16.60;72.69;102888.22;5019012;28;20030;-77
2022/10/18 09:15:46;;;;;;;0.10;0.10;;;;;;;16.67;72.50;102891.69;4991334;28;20147;-76
2022/10/18 09:23:49;;;;;;;0.10;0.10;;;;;;;16.82;69.82;102891.50;5144595;27;141403;-77
2022/10/18 09:26:23;;;;;;;0.10;0.10;;;;;;;16.95;69.66;102900.25;5120981;28;20114;-77
2022/10/18 09:32:13;;;;;;;0.10;0.10;;;;;;;17.06;69.05;102901.91;5162908;27;87657;-77
2022/10/18 09:35:04;;;;;;;0.10;0.10;;;;;;;17.16;69.81;102913.38;5150994;27;20023;-77
2022/10/18 09:37:33;;;;;;;0.10;0.10;;;;;;;17.16;66.74;102918.72;5150039;27;20038;-77
2022/10/18 09:40:13;;;;;;;0.10;0.10;;;;;;;17.22;66.04;102915.97;5145987;27;20489;-77
2022/10/18 09:42:46;;;;;;;0.20;0.20;;;;;;;17.24;65.73;102917.69;5148856;27;20031;-78
2022/10/18 09:45:31;;;;;;;0.00;0.00;;;;;;;17.36;63.42;102924.69;5152596;27;20015;-78
2022/10/18 09:48:12;;;;;;;0.10;0.10;;;;;;;17.48;63.53;102920.91;5152441;27;20525;-78
2022/10/18 09:53:45;;;;;;;0.17;0.17;;;;;;;17.60;63.17;102915.34;5097759;27;20166;-78
2022/10/18 09:56:19;;;;;;;0.10;0.10;;;;;;;17.71;66.16;102928.59;5050864;28;20120;-77
2022/10/18 09:58:48;;;;;;;0.10;0.10;;;;;;;17.78;66.81;102929.34;5047561;28;20514;-77
2022/10/18 10:01:19;;;;;;;0.10;0.10;;;;;;;17.86;66.87;102927.44;5050006;28;20465;-78
2022/10/18 10:03:46;;;;;;;0.10;0.10;;;;;;;17.89;65.66;102926.50;5051731;28;20033;-78
2022/10/18 10:08:53;;;;;;;0.10;0.10;;;;;;;17.91;63.61;102946.16;5099051;27;20621;-78
2022/10/18 10:11:47;;;;;;;0.32;0.32;;;;;;;18.00;63.43;102948.69;5071491;28;20116;-78
2022/10/18 10:19:55;;;;;;;0.10;0.10;;;;;;;18.14;61.60;102948.44;5126417;27;20153;-78
2022/10/18 10:22:30;;;;;;;0.10;0.10;;;;;;;18.15;58.19;102949.34;5110696;28;20032;-78
2022/10/18 10:24:56;;;;;;;0.10;0.10;;;;;;;18.23;60.27;102955.41;5091116;28;20032;-77
2022/10/18 10:30:02;;;;;;;0.10;0.10;;;;;;;18.33;60.15;102943.63;5060313;28;20133;-78
2022/10/18 10:32:42;;;;;;;0.10;0.10;;;;;;;18.42;63.62;102943.44;4966077;28;20415;-78
2022/10/18 10:35:32;;;;;;;0.10;0.10;;;;;;;18.48;56.20;102944.22;4963854;28;20031;-78
2022/10/18 10:37:59;;;;;;;0.10;0.10;;;;;;;18.51;59.99;102945.03;4958302;28;20019;-78
2022/10/18 10:43:05;;;;;;;0.10;0.10;;;;;;;18.63;59.85;102951.97;5144696;27;88542;-77
2022/10/18 10:45:34;;;;;;;0.10;0.10;;;;;;;18.70;60.10;102956.28;5138581;27;20538;-77
2022/10/18 10:48:06;;;;;;;1.45;1.00;;;;;;;18.80;60.64;102958.81;5138741;27;20278;-78
2022/10/18 10:50:55;;;;;;;0.10;0.10;;;;;;;18.90;55.63;102960.38;5136553;27;20023;-77
2022/10/18 10:56:22;;;;;;;0.10;0.10;;;;;;;19.06;56.00;102952.91;5101763;27;20466;-79
2022/10/18 10:58:50;;;;;;;1.65;1.55;;;;;;;19.08;57.23;102949.25;5070998;28;20112;-78
2022/10/18 11:01:21;;;;;;;0.10;0.10;;;;;;;19.14;54.94;102961.69;5078062;28;20516;-79
2022/10/18 11:03:50;;;;;;;0.10;0.10;;;;;;;19.12;53.88;102966.19;5075367;28;20387;-79
2022/10/18 11:06:39;;;;;;;0.10;0.10;;;;;;;19.29;56.36;102963.13;5062769;28;20029;-79
2022/10/18 11:09:18;;;;;;;0.05;0.05;;;;;;;19.35;54.15;102960.31;5057580;28;20025;-78
2022/10/18 11:11:54;;;;;;;4.20;0.75;;;;;;;19.36;55.11;102963.88;5065299;28;20025;-78
2022/10/18 11:14:29;;;;;;;0.10;0.10;;;;;;;19.36;51.98;102963.88;5066356;28;20088;-79
2022/10/18 11:17:22;;;;;;;0.17;0.17;;;;;;;19.43;52.66;102969.97;5065674;28;20091;-79
2022/10/18 11:20:16;;;;;;;0.10;0.10;;;;;;;19.52;53.18;102969.78;5057647;28;20087;-79
2022/10/18 11:23:00;;;;;;;0.10;0.10;;;;;;;19.62;52.33;102960.56;5054311;28;20083;-79
2022/10/18 11:25:42;;;;;;;0.10;0.10;;;;;;;19.60;48.59;102965.09;5057445;28;20025;-79
2022/10/18 11:34:35;;;;;;;0.10;0.10;;;;;;;19.80;50.71;102947.56;5091652;27;20155;-78
2022/10/18 11:37:16;;;;;;;0.10;0.10;;;;;;;19.85;51.00;102951.06;5058452;28;20049;-79
2022/10/18 11:40:05;;;;;;;0.17;0.17;;;;;;;19.97;53.29;102956.13;5058064;28;20407;-78
2022/10/18 11:45:26;;;;;;;0.10;0.10;;;;;;;20.14;51.61;102941.34;5120715;27;20111;-79
2022/10/18 11:48:25;;;;;;;0.28;0.28;;;;;;;20.14;48.40;102941.34;5071417;28;20094;-78
2022/10/18 11:51:12;;;;;;;0.10;0.10;;;;;;;20.22;50.59;102941.13;5071432;28;20037;-79
2022/10/18 11:53:57;;;;;;;0.10;0.10;;;;;;;20.25;46.79;102941.03;5071277;28;20055;-79
2022/10/18 11:56:36;;;;;;;0.90;0.38;;;;;;;20.31;50.87;102944.47;5066998;28;20022;-79
2022/10/18 11:59:25;;;;;;;0.95;0.95;;;;;;;20.34;50.20;102954.25;5060373;28;20037;-79
2022/10/18 12:04:36;;;;;;;0.10;0.10;;;;;;;20.41;47.67;102933.44;5116195;27;20117;-79
2022/10/18 12:07:05;;;;;;;2.45;0.60;;;;;;;20.41;46.60;102933.44;5008776;28;20121;-80
2022/10/18 12:12:26;;;;;;;0.05;0.05;;;;;;;20.60;47.65;102939.16;5084618;27;20507;-77
2022/10/18 12:14:58;;;;;;;0.10;0.10;;;;;;;20.66;48.10;102936.28;5049513;28;20484;-77
2022/10/18 12:17:43;;;;;;;0.10;0.10;;;;;;;20.68;49.29;102935.31;5052822;28;20512;-78
2022/10/18 12:25:49;;;;;;;0.20;0.20;;;;;;;20.61;48.28;102939.13;5094317;27;20161;-78
2022/10/18 12:31:10;;;;;;;0.57;0.57;;;;;;;20.73;48.23;102937.03;5024355;28;20122;-79
2022/10/18 12:33:42;;;;;;;0.10;0.10;;;;;;;20.71;45.39;102941.53;5030142;28;20132;-79
2022/10/18 12:39:01;;;;;;;0.22;0.22;;;;;;;20.76;44.41;102929.75;5109720;27;20127;-79
2022/10/18 12:41:32;;;;;;;0.10;0.10;;;;;;;20.74;46.05;102928.91;5077602;28;20036;-79
2022/10/18 12:46:52;;;;;;;0.00;0.00;;;;;;;20.74;43.69;102930.72;5110766;27;20490;-78
2022/10/18 12:49:29;;;;;;;0.08;0.08;;;;;;;20.77;45.27;102925.25;5074515;28;20597;-77
2022/10/18 12:51:58;;;;;;;0.10;0.10;;;;;;;20.81;45.65;102932.28;5075623;28;20044;-78
2022/10/18 12:54:28;;;;;;;0.10;0.10;;;;;;;20.76;44.77;102928.84;5076314;28;20120;-77
2022/10/18 12:56:55;;;;;;;0.00;0.00;;;;;;;20.69;44.38;102929.00;5071396;28;20044;-78
2022/10/18 13:04:37;;;;;;;0.03;0.03;;;;;;;20.63;45.21;102915.72;5112479;27;20187;-78
2022/10/18 13:07:21;;;;;;;0.10;0.10;;;;;;;20.68;45.79;102921.84;5098672;28;20035;-78
2022/10/18 13:13:06;;;;;;;0.90;0.90;;;;;;;20.73;46.31;102905.59;5114560;27;20183;-79